createdAt,value
2023-01-13T00:00:04.629Z,20.80
2023-01-13T00:01:15.970Z,20.80
2023-01-13T00:02:22.977Z,20.80
2023-01-13T00:03:34.733Z,20.80
2023-01-13T00:04:41.866Z,20.50
2023-01-13T00:05:53.673Z,20.80
2023-01-13T00:07:00.758Z,20.80
2023-01-13T00:08:07.532Z,20.80
2023-01-13T00:09:14.173Z,20.70
2023-01-13T00:10:34.024Z,20.80
2023-01-13T00:11:54.406Z,20.80
2023-01-13T00:13:10.211Z,20.80
2023-01-13T00:14:39.221Z,20.80
2023-01-13T00:15:58.467Z,20.60
2023-01-13T00:17:09.013Z,20.70
2023-01-13T00:18:15.688Z,20.80
2023-01-13T00:19:32.205Z,20.80
2023-01-13T00:20:51.322Z,20.80
2023-01-13T00:22:11.655Z,20.80
2023-01-13T00:23:31.236Z,20.80
2023-01-13T00:24:39.058Z,20.80
2023-01-13T00:25:44.189Z,20.80
2023-01-13T00:26:53.234Z,20.80
2023-01-13T00:28:11.318Z,20.80
2023-01-13T00:29:22.347Z,20.80
2023-01-13T00:30:28.221Z,20.80
2023-01-13T00:31:54.570Z,20.80
2023-01-13T00:33:00.255Z,20.60
2023-01-13T00:34:08.661Z,20.80
2023-01-13T00:35:14.179Z,20.80
2023-01-13T00:36:23.388Z,21.10
2023-01-13T00:37:30.377Z,20.80
2023-01-13T00:38:37.933Z,20.70
2023-01-13T00:39:46.533Z,20.80
2023-01-13T00:40:58.394Z,20.80
2023-01-13T00:42:26.845Z,20.80
2023-01-13T00:43:33.459Z,20.90
2023-01-13T00:44:48.444Z,20.80
2023-01-13T00:46:03.072Z,20.70
2023-01-13T00:47:21.633Z,20.70
2023-01-13T00:48:31.327Z,20.80
2023-01-13T00:49:54.561Z,20.80
2023-01-13T00:51:12.513Z,20.80
2023-01-13T00:52:17.789Z,20.80
2023-01-13T00:53:32.318Z,20.80
2023-01-13T00:54:42.114Z,20.90
2023-01-13T00:55:54.097Z,20.80
2023-01-13T00:57:11.236Z,20.80
2023-01-13T00:58:19.284Z,20.80
2023-01-13T00:59:42.303Z,20.70
2023-01-13T01:01:02.526Z,20.80
2023-01-13T01:02:21.707Z,20.80
2023-01-13T01:03:30.365Z,20.80
2023-01-13T01:04:43.551Z,20.80
2023-01-13T01:05:57.481Z,20.80
2023-01-13T01:07:13.354Z,20.80
2023-01-13T01:08:19.533Z,20.80
2023-01-13T01:09:34.375Z,20.80
2023-01-13T01:10:52.023Z,20.70
2023-01-13T01:12:15.561Z,20.80
2023-01-13T01:13:25.763Z,20.80
2023-01-13T01:14:35.349Z,20.80
2023-01-13T01:15:44.803Z,20.80
2023-01-13T01:16:56.519Z,20.80
2023-01-13T01:18:13.608Z,20.80
2023-01-13T01:19:28.757Z,20.80
2023-01-13T01:20:37.862Z,20.80
2023-01-13T01:21:56.550Z,20.80
2023-01-13T01:23:06.897Z,20.70
2023-01-13T01:24:27.808Z,20.80
2023-01-13T01:25:40.457Z,20.80
2023-01-13T01:26:45.232Z,20.80
2023-01-13T01:27:55.005Z,20.80
2023-01-13T01:29:08.573Z,20.80
2023-01-13T01:30:11.947Z,20.80
2023-01-13T01:31:33.810Z,20.80
2023-01-13T01:32:51.727Z,20.80
2023-01-13T01:34:03.778Z,20.80
2023-01-13T01:35:16.804Z,20.80
2023-01-13T01:36:32.745Z,20.80
2023-01-13T01:37:48.511Z,20.80
2023-01-13T01:38:55.758Z,20.80
2023-01-13T01:40:02.969Z,20.80
2023-01-13T01:41:17.545Z,20.80
2023-01-13T01:42:41.536Z,20.80
2023-01-13T01:44:01.628Z,20.80
2023-01-13T01:45:18.194Z,20.80
2023-01-13T01:46:37.673Z,20.80
2023-01-13T01:48:01.542Z,20.80
2023-01-13T01:49:09.761Z,20.80
2023-01-13T01:50:20.648Z,20.80
2023-01-13T01:51:38.559Z,20.80
2023-01-13T01:52:54.885Z,20.80
2023-01-13T01:55:28.727Z,20.80
2023-01-13T01:56:35.942Z,20.80
2023-01-13T01:57:47.758Z,20.70
2023-01-13T01:58:58.822Z,20.80
2023-01-13T02:00:03.810Z,20.80
2023-01-13T02:01:17.561Z,20.80
2023-01-13T02:02:25.490Z,20.80
2023-01-13T02:03:35.206Z,20.80
2023-01-13T02:04:46.374Z,20.80
2023-01-13T02:05:54.963Z,21.40
2023-01-13T02:07:04.752Z,20.80
2023-01-13T02:08:20.670Z,20.80
2023-01-13T02:09:29.134Z,20.60
2023-01-13T02:10:51.845Z,20.80
2023-01-13T02:12:18.434Z,20.80
2023-01-13T02:15:11.306Z,20.80
2023-01-13T02:16:24.893Z,20.80
2023-01-13T02:17:52.553Z,20.80
2023-01-13T02:18:57.799Z,20.80
2023-01-13T02:20:25.743Z,20.80
2023-01-13T02:21:48.567Z,20.80
2023-01-13T02:22:59.219Z,20.80
2023-01-13T02:24:34.796Z,20.70
2023-01-13T02:25:49.537Z,20.80
2023-01-13T02:27:06.182Z,20.80
2023-01-13T02:28:22.143Z,20.80
2023-01-13T02:29:53.280Z,20.80
2023-01-13T02:31:29.119Z,20.80
2023-01-13T02:34:28.222Z,20.80
2023-01-13T02:35:52.016Z,20.80
2023-01-13T02:37:04.429Z,20.80
2023-01-13T02:38:13.221Z,20.80
2023-01-13T02:39:37.516Z,20.80
2023-01-13T02:40:50.843Z,20.80
2023-01-13T02:42:13.252Z,20.80
2023-01-13T02:43:42.378Z,20.80
2023-01-13T02:46:36.470Z,20.80
2023-01-13T02:47:42.203Z,20.80
2023-01-13T02:48:55.297Z,20.90
2023-01-13T02:50:14.091Z,20.80
2023-01-13T02:51:24.915Z,20.80
2023-01-13T02:52:36.731Z,20.80
2023-01-13T02:54:01.836Z,20.80
2023-01-13T02:55:12.292Z,20.70
2023-01-13T02:56:46.153Z,20.80
2023-01-13T02:58:02.156Z,20.80
2023-01-13T02:59:20.352Z,20.80
2023-01-13T03:00:27.491Z,20.80
2023-01-13T03:01:37.017Z,20.80
2023-01-13T03:02:54.293Z,20.90
2023-01-13T03:04:00.583Z,20.70
2023-01-13T03:05:07.013Z,20.80
2023-01-13T03:06:19.365Z,20.80
2023-01-13T03:07:30.861Z,20.80
2023-01-13T03:08:52.261Z,20.80
2023-01-13T03:10:21.348Z,20.80
2023-01-13T03:11:33.697Z,20.80
2023-01-13T03:13:04.624Z,20.80
2023-01-13T03:14:15.317Z,20.80
2023-01-13T03:15:40.427Z,20.80
2023-01-13T03:16:55.318Z,20.80
2023-01-13T03:18:11.514Z,20.80
2023-01-13T03:20:00.884Z,20.80
2023-01-13T03:21:20.292Z,20.80
2023-01-13T03:22:25.269Z,20.80
2023-01-13T03:23:55.817Z,20.80
2023-01-13T03:25:21.216Z,20.90
2023-01-13T03:26:30.215Z,20.80
2023-01-13T03:27:42.492Z,20.80
2023-01-13T03:30:27.221Z,20.80
2023-01-13T03:31:35.446Z,20.80
2023-01-13T03:32:48.559Z,20.80
2023-01-13T03:34:05.385Z,20.80
2023-01-13T03:35:19.747Z,20.80
2023-01-13T03:36:32.233Z,20.80
2023-01-13T03:37:43.895Z,20.80
2023-01-13T03:38:57.419Z,20.80
2023-01-13T03:40:11.959Z,20.80
2023-01-13T03:41:24.658Z,20.80
2023-01-13T03:42:36.551Z,20.80
2023-01-13T03:44:02.704Z,20.80
2023-01-13T03:45:14.822Z,20.80
2023-01-13T03:46:38.032Z,20.80
2023-01-13T03:47:46.740Z,20.80
2023-01-13T03:48:55.231Z,20.80
2023-01-13T03:50:09.549Z,20.80
2023-01-13T03:51:20.655Z,20.80
2023-01-13T03:54:09.093Z,20.80
2023-01-13T03:55:26.156Z,20.80
2023-01-13T03:56:58.165Z,20.80
2023-01-13T04:00:52.426Z,20.80
2023-01-13T04:02:10.576Z,20.80
2023-01-13T04:03:30.463Z,20.80
2023-01-13T04:04:43.615Z,20.80
2023-01-13T04:05:58.680Z,20.80
2023-01-13T04:07:25.317Z,20.80
2023-01-13T04:08:37.385Z,20.80
2023-01-13T04:09:48.554Z,20.80
2023-01-13T04:11:03.324Z,20.80
2023-01-13T04:12:48.677Z,20.70
2023-01-13T04:13:55.418Z,20.80
2023-01-13T04:15:01.539Z,20.80
2023-01-13T04:16:15.487Z,20.80
2023-01-13T04:17:26.045Z,20.70
2023-01-13T04:19:00.788Z,20.80
2023-01-13T04:20:07.474Z,20.80
2023-01-13T04:21:12.384Z,20.80
2023-01-13T04:22:19.103Z,20.80
2023-01-13T04:23:30.338Z,20.80
2023-01-13T04:24:40.304Z,20.80
2023-01-13T04:25:52.067Z,20.80
2023-01-13T04:26:59.627Z,20.80
2023-01-13T04:28:05.281Z,21.70
2023-01-13T04:29:09.402Z,20.80
2023-01-13T04:30:22.565Z,20.80
2023-01-13T04:31:34.697Z,20.80
2023-01-13T04:32:48.122Z,20.80
2023-01-13T04:35:42.813Z,20.80
2023-01-13T04:36:55.711Z,20.70
2023-01-13T04:38:17.486Z,20.80
2023-01-13T04:39:40.296Z,20.80
2023-01-13T04:40:49.577Z,20.80
2023-01-13T04:42:04.601Z,20.80
2023-01-13T04:43:24.042Z,20.80
2023-01-13T04:44:44.331Z,20.80
2023-01-13T04:45:54.810Z,20.80
2023-01-13T04:47:31.985Z,20.80
2023-01-13T04:48:40.228Z,20.80
2023-01-13T04:49:47.499Z,20.80
2023-01-13T04:50:59.448Z,20.80
2023-01-13T04:52:04.719Z,20.70
2023-01-13T04:53:14.568Z,20.90
2023-01-13T04:54:20.472Z,20.80
2023-01-13T04:55:26.592Z,20.80
2023-01-13T04:56:32.184Z,20.80
2023-01-13T04:57:48.997Z,20.80
2023-01-13T04:58:59.103Z,20.80
2023-01-13T05:00:07.804Z,20.80
2023-01-13T05:01:11.808Z,20.80
2023-01-13T05:02:24.871Z,20.80
2023-01-13T05:03:30.904Z,20.80
2023-01-13T05:04:36.181Z,20.80
2023-01-13T05:05:42.399Z,20.80
2023-01-13T05:06:47.797Z,20.80
2023-01-13T05:07:52.812Z,20.70
2023-01-13T05:09:00.125Z,20.80
2023-01-13T05:10:09.858Z,20.80
2023-01-13T05:11:33.416Z,20.80
2023-01-13T05:13:02.277Z,20.90
2023-01-13T05:14:28.001Z,20.80
2023-01-13T05:16:26.797Z,20.80
2023-01-13T05:17:32.359Z,20.80
2023-01-13T05:18:38.599Z,20.80
2023-01-13T05:19:44.864Z,20.70
2023-01-13T05:20:58.563Z,20.80
2023-01-13T05:22:23.630Z,20.80
2023-01-13T05:23:50.464Z,20.80
2023-01-13T05:25:13.192Z,20.80
2023-01-13T05:26:23.748Z,20.80
2023-01-13T05:27:30.229Z,20.80
2023-01-13T05:28:46.657Z,20.80
2023-01-13T05:29:53.619Z,20.80
2023-01-13T05:31:01.857Z,20.80
2023-01-13T05:32:09.540Z,20.80
2023-01-13T05:33:17.020Z,20.80
2023-01-13T05:34:23.413Z,20.80
2023-01-13T05:35:35.485Z,20.80
2023-01-13T05:36:52.546Z,20.80
2023-01-13T05:38:13.935Z,20.80
2023-01-13T05:41:07.123Z,20.80
2023-01-13T05:42:56.981Z,21.30
2023-01-13T05:44:07.485Z,20.80
2023-01-13T05:45:19.764Z,20.80
2023-01-13T05:46:34.407Z,20.70
2023-01-13T05:47:48.132Z,20.90
2023-01-13T05:48:56.163Z,20.80
2023-01-13T05:50:04.032Z,20.80
2023-01-13T05:51:15.252Z,20.80
2023-01-13T05:52:25.687Z,20.80
2023-01-13T05:53:33.326Z,20.80
2023-01-13T05:54:42.659Z,20.80
2023-01-13T05:55:49.841Z,20.80
2023-01-13T05:56:58.489Z,20.80
2023-01-13T05:58:16.312Z,20.80
2023-01-13T05:59:20.765Z,20.80
2023-01-13T06:00:26.970Z,20.80
2023-01-13T06:01:35.645Z,20.80
2023-01-13T06:02:58.767Z,20.80
2023-01-13T06:04:07.631Z,20.80
2023-01-13T06:05:12.940Z,20.80
2023-01-13T06:06:17.605Z,20.80
2023-01-13T06:08:46.168Z,20.80
2023-01-13T06:09:56.073Z,20.80
2023-01-13T06:11:02.962Z,20.80
2023-01-13T06:12:28.315Z,20.80
2023-01-13T06:13:37.107Z,20.80
2023-01-13T06:14:47.240Z,20.80
2023-01-13T06:16:05.397Z,20.80
2023-01-13T06:17:20.488Z,20.80
2023-01-13T06:18:31.417Z,20.80
2023-01-13T06:19:39.323Z,20.80
2023-01-13T06:20:47.918Z,21.00
2023-01-13T06:23:22.521Z,20.80
2023-01-13T06:24:29.685Z,20.80
2023-01-13T06:25:52.668Z,20.80
2023-01-13T06:26:58.371Z,20.80
2023-01-13T06:28:06.279Z,20.80
2023-01-13T06:29:14.333Z,20.80
2023-01-13T06:30:21.585Z,20.80
2023-01-13T06:31:26.429Z,20.70
2023-01-13T06:32:41.798Z,20.80
2023-01-13T06:33:51.376Z,20.80
2023-01-13T06:35:08.953Z,20.80
2023-01-13T06:36:18.789Z,20.80
2023-01-13T06:37:26.960Z,21.00
2023-01-13T06:38:35.306Z,20.80
2023-01-13T06:40:05.129Z,20.80
2023-01-13T06:41:18.872Z,20.80
2023-01-13T06:42:47.126Z,20.70
2023-01-13T06:43:51.813Z,20.80
2023-01-13T06:44:59.090Z,20.90
2023-01-13T06:46:07.871Z,20.80
2023-01-13T06:47:36.589Z,21.10
2023-01-13T06:48:52.346Z,20.80
2023-01-13T06:49:58.787Z,20.50
2023-01-13T06:51:06.670Z,20.80
2023-01-13T06:52:20.815Z,20.80
2023-01-13T06:53:32.089Z,20.80
2023-01-13T06:54:50.380Z,20.80
2023-01-13T06:55:57.926Z,20.80
2023-01-13T06:57:10.955Z,20.80
2023-01-13T06:58:18.524Z,20.80
2023-01-13T06:59:25.265Z,20.80
2023-01-13T07:00:43.600Z,20.80
2023-01-13T07:01:53.729Z,20.80
2023-01-13T07:03:21.419Z,20.80
2023-01-13T07:04:31.889Z,20.80
2023-01-13T07:05:54.106Z,20.80
2023-01-13T07:06:59.889Z,20.80
2023-01-13T07:08:15.684Z,20.80
2023-01-13T07:09:24.482Z,20.80
2023-01-13T07:10:43.284Z,20.80
2023-01-13T07:12:08.380Z,20.70
2023-01-13T07:13:47.671Z,20.80
2023-01-13T07:15:10.398Z,20.80
2023-01-13T07:16:22.002Z,20.80
2023-01-13T07:17:27.175Z,20.80
2023-01-13T07:18:34.477Z,20.80
2023-01-13T07:19:53.539Z,20.80
2023-01-13T07:21:01.117Z,20.80
2023-01-13T07:22:11.026Z,20.80
2023-01-13T07:23:45.053Z,20.80
2023-01-13T07:24:55.609Z,20.80
2023-01-13T07:26:05.752Z,20.80
2023-01-13T07:27:18.527Z,21.20
2023-01-13T07:28:25.104Z,20.90
2023-01-13T07:29:29.618Z,20.90
2023-01-13T07:32:00.680Z,20.80
2023-01-13T07:33:13.579Z,21.00
2023-01-13T07:35:47.260Z,20.80
2023-01-13T07:36:59.501Z,20.80
2023-01-13T07:38:09.017Z,20.80
2023-01-13T07:39:15.767Z,20.90
2023-01-13T07:40:28.526Z,20.80
2023-01-13T07:41:51.300Z,20.80
2023-01-13T07:43:19.735Z,20.80
2023-01-13T07:44:28.115Z,20.80
2023-01-13T07:47:12.217Z,20.80
2023-01-13T07:48:18.499Z,20.80
2023-01-13T07:49:26.326Z,20.80
2023-01-13T07:50:32.044Z,20.80
2023-01-13T07:51:42.319Z,20.80
2023-01-13T07:52:48.298Z,20.80
2023-01-13T07:55:27.958Z,20.80
2023-01-13T07:56:38.050Z,20.60
2023-01-13T07:58:03.697Z,20.80
2023-01-13T07:59:20.415Z,20.90
2023-01-13T08:00:56.749Z,20.70
2023-01-13T08:02:09.750Z,20.80
2023-01-13T08:03:19.913Z,20.80
2023-01-13T08:04:34.769Z,20.90
2023-01-13T08:05:47.264Z,20.80
2023-01-13T08:06:54.125Z,20.80
2023-01-13T08:08:03.391Z,20.90
2023-01-13T08:09:10.404Z,20.90
2023-01-13T08:10:20.972Z,20.80
2023-01-13T08:11:28.708Z,20.90
2023-01-13T08:13:08.980Z,20.90
2023-01-13T08:14:17.644Z,20.90
2023-01-13T08:15:22.585Z,20.80
2023-01-13T08:16:28.230Z,20.90
2023-01-13T08:17:54.308Z,20.80
2023-01-13T08:19:01.772Z,20.80
2023-01-13T08:20:09.749Z,20.90
2023-01-13T08:21:31.514Z,20.80
2023-01-13T08:22:38.317Z,20.90
2023-01-13T08:23:46.259Z,20.90
2023-01-13T08:24:55.869Z,20.90
2023-01-13T08:26:08.487Z,20.90
2023-01-13T08:27:32.790Z,20.90
2023-01-13T08:28:41.636Z,20.90
2023-01-13T08:29:48.093Z,20.80
2023-01-13T08:31:02.066Z,20.90
2023-01-13T08:32:18.474Z,20.90
2023-01-13T08:33:32.175Z,20.90
2023-01-13T08:34:40.721Z,20.90
2023-01-13T08:36:02.952Z,20.90
2023-01-13T08:37:18.410Z,20.80
2023-01-13T08:38:24.351Z,20.90
2023-01-13T08:39:31.528Z,20.90
2023-01-13T08:40:43.285Z,20.90
2023-01-13T08:42:01.768Z,20.80
2023-01-13T08:43:13.764Z,20.90
2023-01-13T08:44:23.508Z,20.90
2023-01-13T08:45:47.547Z,20.80
2023-01-13T08:46:58.217Z,20.90
2023-01-13T08:48:12.602Z,20.80
2023-01-13T08:49:30.964Z,20.90
2023-01-13T08:52:10.271Z,20.90
2023-01-13T08:53:20.803Z,20.90
2023-01-13T08:55:50.435Z,20.90
2023-01-13T08:56:57.597Z,20.90
2023-01-13T08:58:16.340Z,20.90
2023-01-13T08:59:28.762Z,20.60
2023-01-13T09:00:52.620Z,20.90
2023-01-13T09:02:04.650Z,20.90
2023-01-13T09:03:35.116Z,20.90
2023-01-13T09:04:48.693Z,20.90
2023-01-13T09:05:59.122Z,20.90
2023-01-13T09:07:15.693Z,20.90
2023-01-13T09:08:20.897Z,20.60
2023-01-13T09:09:53.093Z,20.90
2023-01-13T09:11:27.509Z,20.90
2023-01-13T09:12:58.428Z,20.90
2023-01-13T09:14:08.626Z,20.90
2023-01-13T09:15:23.607Z,20.90
2023-01-13T09:16:28.806Z,20.90
2023-01-13T09:17:36.691Z,20.90
2023-01-13T09:18:48.355Z,20.90
2023-01-13T09:19:54.433Z,20.90
2023-01-13T09:21:13.501Z,20.90
2023-01-13T09:22:27.396Z,20.90
2023-01-13T09:23:32.687Z,20.90
2023-01-13T09:25:01.172Z,20.70
2023-01-13T09:26:06.801Z,20.90
2023-01-13T09:27:16.055Z,20.90
2023-01-13T09:28:26.587Z,20.90
2023-01-13T09:29:31.995Z,20.90
2023-01-13T09:30:47.377Z,20.90
2023-01-13T09:31:54.800Z,20.90
2023-01-13T09:33:26.597Z,20.90
2023-01-13T09:34:50.387Z,20.90
2023-01-13T09:36:09.108Z,21.00
2023-01-13T09:37:16.591Z,20.90
2023-01-13T09:38:24.423Z,20.90
2023-01-13T09:39:34.087Z,20.80
2023-01-13T09:40:54.822Z,20.90
2023-01-13T09:42:24.360Z,20.90
2023-01-13T09:43:53.625Z,20.90
2023-01-13T09:45:05.879Z,20.90
2023-01-13T09:46:42.434Z,20.90
2023-01-13T09:47:53.742Z,20.90
2023-01-13T09:48:59.229Z,20.90
2023-01-13T09:50:17.094Z,20.90
2023-01-13T09:51:40.680Z,20.90
2023-01-13T09:52:49.442Z,20.90
2023-01-13T09:54:25.510Z,21.00
2023-01-13T09:55:35.321Z,20.90
2023-01-13T09:56:43.821Z,20.80
2023-01-13T09:57:49.076Z,20.90
2023-01-13T09:59:07.708Z,20.90
2023-01-13T10:00:18.919Z,20.90
2023-01-13T10:02:04.529Z,20.90
2023-01-13T10:03:27.517Z,20.90
2023-01-13T10:04:42.421Z,20.90
2023-01-13T10:06:18.377Z,21.00
2023-01-13T10:09:01.067Z,21.00
2023-01-13T10:12:16.936Z,20.90
2023-01-13T10:13:31.364Z,21.00
2023-01-13T10:14:42.796Z,21.00
2023-01-13T10:17:27.073Z,21.00
2023-01-13T10:18:45.662Z,21.00
2023-01-13T10:19:53.734Z,20.90
2023-01-13T10:21:08.652Z,21.00
2023-01-13T10:22:52.685Z,21.00
2023-01-13T10:24:05.132Z,20.80
2023-01-13T10:25:39.650Z,21.00
2023-01-13T10:27:15.709Z,20.80
2023-01-13T10:28:50.580Z,21.00
2023-01-13T10:31:26.691Z,21.00
2023-01-13T10:33:09.019Z,21.00
2023-01-13T10:34:26.099Z,21.00
2023-01-13T10:38:20.816Z,21.00
2023-01-13T10:39:46.759Z,21.00
2023-01-13T10:41:23.947Z,21.00
2023-01-13T10:43:18.926Z,21.00
2023-01-13T10:44:52.824Z,21.00
2023-01-13T10:46:13.116Z,21.00
2023-01-13T10:48:54.284Z,21.00
2023-01-13T10:50:16.179Z,21.00
2023-01-13T11:03:51.734Z,21.40
2023-01-13T11:05:00.508Z,21.10
2023-01-13T11:06:03.236Z,21.10
2023-01-13T11:07:18.375Z,21.10
2023-01-13T11:08:24.652Z,21.10
2023-01-13T11:09:32.750Z,21.10
2023-01-13T11:10:44.361Z,21.10
2023-01-13T11:11:47.497Z,21.10
2023-01-13T11:12:55.653Z,21.10
2023-01-13T11:14:20.974Z,21.10
2023-01-13T11:15:27.474Z,21.10
2023-01-13T11:16:40.735Z,21.10
2023-01-13T11:18:00.912Z,21.20
2023-01-13T11:19:12.163Z,21.10
2023-01-13T11:20:20.521Z,21.10
2023-01-13T11:21:25.825Z,21.20
2023-01-13T11:22:34.034Z,21.10
2023-01-13T11:23:38.416Z,21.10
2023-01-13T11:24:58.441Z,21.20
2023-01-13T11:26:11.521Z,21.10
2023-01-13T11:27:16.313Z,21.20
2023-01-13T11:28:29.040Z,21.10
2023-01-13T11:29:50.942Z,21.20
2023-01-13T11:31:15.339Z,21.20
2023-01-13T11:32:25.439Z,21.10
2023-01-13T11:33:46.798Z,21.10
2023-01-13T11:34:59.452Z,21.20
2023-01-13T11:36:08.348Z,21.10
2023-01-13T11:37:24.314Z,21.20
2023-01-13T11:38:43.312Z,21.20
2023-01-13T11:39:56.883Z,21.20
2023-01-13T11:41:08.016Z,21.20
2023-01-13T11:42:23.022Z,21.20
2023-01-13T11:43:32.777Z,21.20
2023-01-13T11:44:41.540Z,21.20
2023-01-13T11:45:46.691Z,21.20
2023-01-13T11:46:51.121Z,21.20
2023-01-13T11:47:57.754Z,21.30
2023-01-13T11:49:02.026Z,21.20
2023-01-13T11:50:15.218Z,21.20
2023-01-13T11:51:25.967Z,21.20
2023-01-13T11:52:35.794Z,21.20
2023-01-13T11:53:58.704Z,21.20
2023-01-13T11:55:07.023Z,21.20
2023-01-13T11:56:12.538Z,21.20
2023-01-13T11:57:21.360Z,21.20
2023-01-13T11:58:49.594Z,21.20
2023-01-13T12:00:07.825Z,21.20
2023-01-13T12:01:23.169Z,21.20
2023-01-13T12:02:38.301Z,21.20
2023-01-13T12:03:43.399Z,21.30
2023-01-13T12:05:11.347Z,21.20
2023-01-13T12:06:22.249Z,21.20
2023-01-13T12:07:32.235Z,21.20
2023-01-13T12:08:35.616Z,21.20
2023-01-13T12:09:55.999Z,21.20
2023-01-13T12:11:11.050Z,21.20
2023-01-13T12:12:20.843Z,21.20
2023-01-13T12:13:30.285Z,21.30
2023-01-13T12:14:47.528Z,21.20
2023-01-13T12:15:53.062Z,21.30
2023-01-13T12:17:00.366Z,21.20
2023-01-13T12:18:24.999Z,21.30
2023-01-13T12:19:48.291Z,21.20
2023-01-13T12:21:08.295Z,21.20
2023-01-13T12:22:35.302Z,21.30
2023-01-13T12:23:49.050Z,21.20
2023-01-13T12:25:02.877Z,21.20
2023-01-13T12:26:13.522Z,21.30
2023-01-13T12:27:48.544Z,21.20
2023-01-13T12:28:55.541Z,21.20
2023-01-13T12:30:02.458Z,21.20
2023-01-13T12:31:07.859Z,21.30
2023-01-13T12:32:16.636Z,21.30
2023-01-13T12:33:21.449Z,21.20
2023-01-13T12:34:27.053Z,21.30
2023-01-13T12:35:39.501Z,21.20
2023-01-13T12:37:00.361Z,21.20
2023-01-13T12:38:14.604Z,21.30
2023-01-13T12:39:28.129Z,21.20
2023-01-13T12:40:48.252Z,21.20
2023-01-13T12:42:31.755Z,21.30
2023-01-13T12:43:56.918Z,21.30
2023-01-13T12:45:07.038Z,21.30
2023-01-13T12:46:19.153Z,21.30
2023-01-13T12:47:35.073Z,21.30
2023-01-13T12:48:46.666Z,21.20
2023-01-13T12:49:50.546Z,21.30
2023-01-13T12:51:00.714Z,21.30
2023-01-13T12:52:07.965Z,21.30
2023-01-13T12:53:30.976Z,21.30
2023-01-13T12:54:40.760Z,21.30
2023-01-13T12:55:53.393Z,21.30
2023-01-13T12:56:56.710Z,21.30
2023-01-13T12:58:15.393Z,21.20
2023-01-13T12:59:20.560Z,21.30
2023-01-13T13:00:26.051Z,21.30
2023-01-13T13:01:38.492Z,21.30
2023-01-13T13:02:42.767Z,21.30
2023-01-13T13:04:09.333Z,21.30
2023-01-13T13:05:26.350Z,21.30
2023-01-13T13:06:32.252Z,21.30
2023-01-13T13:07:46.817Z,21.30
2023-01-13T13:08:53.401Z,21.30
2023-01-13T13:10:02.779Z,21.30
2023-01-13T13:11:36.502Z,21.30
2023-01-13T13:13:01.607Z,21.30
2023-01-13T13:14:08.913Z,21.30
2023-01-13T13:15:20.326Z,21.30
2023-01-13T13:16:28.343Z,21.30
2023-01-13T13:17:32.181Z,21.30
2023-01-13T13:18:49.419Z,21.30
2023-01-13T13:21:11.409Z,21.30
2023-01-13T13:23:48.399Z,21.30
2023-01-13T13:26:20.015Z,21.30
2023-01-13T13:27:42.735Z,21.30
2023-01-13T13:28:57.971Z,21.30
2023-01-13T13:30:02.411Z,21.30
2023-01-13T13:31:16.597Z,21.20
2023-01-13T13:32:26.900Z,21.30
2023-01-13T13:33:59.534Z,21.30
2023-01-13T13:35:21.143Z,21.30
2023-01-13T13:36:45.019Z,21.30
2023-01-13T13:38:14.096Z,21.30
2023-01-13T13:39:41.587Z,21.30
2023-01-13T13:41:06.671Z,21.30
2023-01-13T13:42:38.459Z,21.20
2023-01-13T13:44:03.455Z,21.30
2023-01-13T13:45:45.920Z,21.20
2023-01-13T13:46:49.153Z,21.20
2023-01-13T13:47:54.030Z,21.30
2023-01-13T13:49:01.028Z,21.30
2023-01-13T13:50:22.379Z,21.30
2023-01-13T13:51:32.688Z,21.20
2023-01-13T13:52:38.908Z,21.20
2023-01-13T13:53:42.751Z,21.20
2023-01-13T13:54:50.179Z,21.20
2023-01-13T13:56:25.981Z,21.20
2023-01-13T13:57:39.944Z,21.30
2023-01-13T13:58:49.246Z,21.30
2023-01-13T13:59:58.567Z,21.20
2023-01-13T14:01:10.221Z,21.20
2023-01-13T14:04:03.971Z,21.20
2023-01-13T14:05:40.593Z,21.30
2023-01-13T14:07:10.602Z,21.20
2023-01-13T14:08:22.783Z,21.20
2023-01-13T14:09:42.352Z,21.20
2023-01-13T14:10:50.249Z,21.20
2023-01-13T14:12:01.710Z,21.20
2023-01-13T14:13:22.563Z,21.20
2023-01-13T14:14:30.257Z,21.20
2023-01-13T14:15:44.159Z,21.20
2023-01-13T14:18:19.495Z,21.20
2023-01-13T14:19:30.549Z,21.20
2023-01-13T14:20:36.257Z,21.30
2023-01-13T14:21:48.775Z,21.20
2023-01-13T14:22:57.760Z,21.20
2023-01-13T14:25:39.778Z,21.20
2023-01-13T14:26:44.946Z,21.20
2023-01-13T14:27:49.171Z,21.20
2023-01-13T14:28:55.760Z,21.20
2023-01-13T14:31:24.921Z,21.20
2023-01-13T14:32:37.304Z,21.20
2023-01-13T14:33:48.331Z,21.20
2023-01-13T14:34:53.274Z,21.20
2023-01-13T14:36:09.948Z,21.20
2023-01-13T14:37:24.428Z,21.20
2023-01-13T14:39:04.749Z,21.20
2023-01-13T14:40:28.153Z,21.20
2023-01-13T14:41:42.688Z,21.20
2023-01-13T14:43:03.993Z,21.20
2023-01-13T14:44:14.732Z,21.20
2023-01-13T14:45:24.290Z,21.20
2023-01-13T14:46:40.033Z,21.10
2023-01-13T14:47:55.279Z,21.20
2023-01-13T14:49:04.022Z,21.20
2023-01-13T14:50:13.951Z,21.10
2023-01-13T14:51:26.700Z,21.20
2023-01-13T14:52:30.926Z,21.20
2023-01-13T14:53:47.174Z,21.20
2023-01-13T14:55:02.326Z,21.20
2023-01-13T14:56:48.571Z,21.20
2023-01-13T14:57:54.294Z,21.10
2023-01-13T14:59:27.041Z,21.10
2023-01-13T15:00:38.905Z,21.20
2023-01-13T15:01:49.497Z,21.20
2023-01-13T15:04:33.566Z,21.10
2023-01-13T15:05:53.147Z,21.20
2023-01-13T15:06:57.918Z,21.10
2023-01-13T15:08:12.043Z,21.10
2023-01-13T15:09:20.835Z,21.10
2023-01-13T15:10:36.624Z,21.10
2023-01-13T15:11:43.293Z,21.10
2023-01-13T15:14:28.635Z,21.10
2023-01-13T15:15:38.264Z,21.10
2023-01-13T15:16:43.271Z,21.20
2023-01-13T15:17:49.256Z,21.10
2023-01-13T15:18:56.293Z,21.10
2023-01-13T15:20:03.997Z,21.10
2023-01-13T15:21:10.744Z,21.10
2023-01-13T15:22:31.337Z,21.10
2023-01-13T15:23:35.258Z,21.10
2023-01-13T15:24:39.166Z,21.10
2023-01-13T15:25:43.567Z,21.10
2023-01-13T15:26:47.218Z,21.10
2023-01-13T15:28:13.029Z,21.10
2023-01-13T15:29:24.320Z,21.10
2023-01-13T15:30:37.472Z,21.10
2023-01-13T15:31:41.529Z,21.10
2023-01-13T15:32:58.205Z,21.10
2023-01-13T15:34:04.386Z,21.10
2023-01-13T15:35:14.249Z,21.10
2023-01-13T15:36:36.822Z,21.10
2023-01-13T15:39:02.273Z,21.10
2023-01-13T15:40:06.980Z,21.10
2023-01-13T15:41:13.013Z,21.10
2023-01-13T15:42:52.361Z,21.10
2023-01-13T15:44:15.243Z,21.10
2023-01-13T15:45:38.637Z,21.10
2023-01-13T15:46:43.586Z,21.10
2023-01-13T15:47:49.013Z,21.10
2023-01-13T15:50:16.154Z,21.10
2023-01-13T15:51:22.478Z,21.10
2023-01-13T15:52:29.810Z,21.10
2023-01-13T15:53:37.018Z,21.10
2023-01-13T15:56:30.212Z,21.00
2023-01-13T15:57:35.080Z,21.10
2023-01-13T15:58:43.603Z,21.00
2023-01-13T15:59:48.735Z,21.10
2023-01-13T16:00:57.517Z,21.10
2023-01-13T16:02:15.943Z,21.10
2023-01-13T16:03:29.064Z,21.10
2023-01-13T16:04:38.985Z,21.10
2023-01-13T16:06:04.226Z,21.10
2023-01-13T16:07:14.124Z,21.10
2023-01-13T16:08:22.539Z,21.10
2023-01-13T16:10:50.698Z,21.10
2023-01-13T16:12:15.626Z,21.00
2023-01-13T16:13:20.244Z,21.10
2023-01-13T16:14:30.501Z,21.10
2023-01-13T16:15:36.169Z,21.10
2023-01-13T16:16:40.066Z,21.10
2023-01-13T16:17:46.847Z,21.10
2023-01-13T16:18:54.571Z,21.10
2023-01-13T16:20:01.307Z,21.10
2023-01-13T16:21:25.179Z,21.10
2023-01-13T16:22:42.519Z,21.10
2023-01-13T16:23:52.846Z,21.00
2023-01-13T16:24:57.195Z,21.10
2023-01-13T16:26:02.458Z,21.10
2023-01-13T16:27:16.865Z,21.00
2023-01-13T16:28:22.963Z,21.00
2023-01-13T16:29:28.276Z,21.00
2023-01-13T16:30:36.505Z,21.00
2023-01-13T16:31:46.264Z,21.00
2023-01-13T16:32:51.280Z,21.00
2023-01-13T16:34:00.323Z,21.10
2023-01-13T16:35:10.850Z,21.00
2023-01-13T16:36:17.236Z,21.00
2023-01-13T16:37:35.085Z,21.00
2023-01-13T16:38:44.183Z,21.00
2023-01-13T16:39:52.007Z,21.00
2023-01-13T16:41:03.953Z,21.00
2023-01-13T16:42:10.379Z,21.10
2023-01-13T16:43:24.115Z,21.00
2023-01-13T16:44:31.707Z,21.00
2023-01-13T16:45:39.676Z,21.00
2023-01-13T16:46:44.610Z,21.00
2023-01-13T16:47:55.539Z,21.10
2023-01-13T16:49:04.214Z,21.10
2023-01-13T16:50:23.388Z,21.00
2023-01-13T16:51:28.234Z,21.00
2023-01-13T16:52:34.586Z,21.10
2023-01-13T16:53:37.106Z,21.00
2023-01-13T16:54:44.261Z,21.00
2023-01-13T16:55:51.968Z,21.00
2023-01-13T16:56:59.136Z,21.00
2023-01-13T16:58:05.394Z,21.00
2023-01-13T16:59:26.768Z,21.00
2023-01-13T17:00:37.120Z,21.00